Time;durP1;ratioP1;P1;durP2;ratioP2;P2;SDS_P1;SDS_P2;PMS_P1;PMS_P2;Temp;Humidity;BMP_temperature;BMP_pressure;BME280_temperature;BME280_humidity;BME280_pressure;Samples;Min_cycle;Max_cycle;Signal;HPM_P1;HPM_P2
2024/03/30 00:01:42;;;;;;;7.85;3.22;;;;;;;12.65;68.82;93229.16;5064081;28;20478;-81
2024/03/30 00:04:09;;;;;;;4.82;2.30;;;;;;;12.59;69.11;93213.81;5068658;28;20036;-81
2024/03/30 00:06:34;;;;;;;5.00;2.28;;;;;;;12.46;68.72;93191.59;5066070;28;20047;-81
2024/03/30 00:09:00;;;;;;;4.93;2.03;;;;;;;12.34;69.12;93170.97;5067340;28;20705;-81
2024/03/30 00:11:25;;;;;;;6.65;2.53;;;;;;;12.64;69.22;93222.44;5065579;28;20405;-81
2024/03/30 00:13:51;;;;;;;6.40;2.85;;;;;;;12.35;70.15;93211.97;5067599;28;20033;-80
2024/03/30 00:16:17;;;;;;;5.70;2.58;;;;;;;12.39;70.93;93215.66;5068684;28;20072;-80
2024/03/30 00:18:45;;;;;;;;;;;;;;;12.48;70.99;93217.91;5065134;28;20037;-79
2024/03/30 00:21:15;;;;;;;5.22;2.70;;;;;;;12.24;71.39;93212.72;5068932;28;19916;-79
2024/03/30 00:23:40;;;;;;;8.82;3.03;;;;;;;12.25;72.52;93227.16;5068227;28;20445;-79
2024/03/30 00:26:06;;;;;;;5.93;2.20;;;;;;;12.11;73.70;93216.25;5067424;28;20115;-79
2024/03/30 00:28:31;;;;;;;6.22;3.10;;;;;;;12.01;73.71;93211.59;5067350;28;20041;-80
2024/03/30 00:30:57;;;;;;;4.32;1.95;;;;;;;11.70;73.37;93162.69;5064590;28;20040;-81
2024/03/30 00:33:22;;;;;;;5.22;2.45;;;;;;;11.71;74.30;93161.69;5068654;28;20041;-80
2024/03/30 00:35:48;;;;;;;5.85;2.20;;;;;;;11.95;74.55;93202.19;5068638;28;20032;-80
2024/03/30 00:38:14;;;;;;;8.55;4.35;;;;;;;11.89;74.57;93189.16;5066968;28;20145;-80
2024/03/30 00:40:40;;;;;;;5.80;2.88;;;;;;;11.82;73.87;93173.03;5062834;28;20031;-80
2024/03/30 00:43:06;;;;;;;;;;;;;;;12.09;74.64;93205.38;5055038;28;20043;-79
2024/03/30 00:45:35;;;;;;;4.18;2.35;;;;;;;11.94;74.79;93206.53;5065193;28;20369;-80
2024/03/30 00:48:01;;;;;;;6.10;2.28;;;;;;;11.94;75.33;93206.53;5067571;28;20394;-81
2024/03/30 00:50:26;;;;;;;8.50;2.40;;;;;;;11.83;74.57;93181.53;5063944;28;20482;-80
2024/03/30 00:52:52;;;;;;;6.50;2.15;;;;;;;12.01;74.23;93196.16;5058721;28;20039;-82
2024/03/30 00:55:17;;;;;;;5.93;2.35;;;;;;;11.94;74.31;93185.94;5067142;28;20036;-82
2024/03/30 00:57:43;;;;;;;5.60;2.42;;;;;;;11.94;74.42;93183.34;5067446;28;20037;-82
2024/03/30 01:00:10;;;;;;;6.03;2.75;;;;;;;11.91;74.49;93181.25;5064715;28;20052;-80
2024/03/30 01:02:38;;;;;;;4.10;2.15;;;;;;;11.67;74.37;93146.91;5067516;28;20028;-80
2024/03/30 01:05:04;;;;;;;4.40;1.73;;;;;;;11.86;74.67;93181.88;5062651;28;20029;-79
2024/03/30 01:07:30;;;;;;;3.28;1.35;;;;;;;11.86;74.05;93176.72;5065637;28;20036;-80
2024/03/30 01:09:55;;;;;;;3.92;1.35;;;;;;;11.75;73.86;93162.81;5066030;28;20032;-83
2024/03/30 01:12:21;;;;;;;5.90;2.65;;;;;;;11.76;74.08;93161.03;5063158;28;20040;-83
2024/03/30 01:14:47;;;;;;;3.72;1.38;;;;;;;11.54;74.49;93112.63;5064751;28;20490;-83
2024/03/30 01:17:13;;;;;;;2.75;1.33;;;;;;;11.80;74.16;93141.56;5066763;28;20028;-82
2024/03/30 01:19:39;;;;;;;;;;;;;;;12.13;73.53;93173.06;5067533;28;20041;-82
2024/03/30 01:22:04;;;;;;;3.35;1.45;;;;;;;12.05;73.63;93163.84;5063790;28;19999;-80
2024/03/30 01:24:30;;;;;;;3.30;1.60;;;;;;;12.09;73.70;93167.53;5067159;28;20055;-81
2024/03/30 01:26:57;;;;;;;5.40;1.88;;;;;;;12.06;73.36;93162.84;5065749;28;20486;-79
2024/03/30 01:29:25;;;;;;;4.90;1.70;;;;;;;12.15;73.58;93176.97;5065606;28;20043;-80
2024/03/30 01:31:54;;;;;;;5.13;1.70;;;;;;;12.12;73.68;93156.00;5066941;28;20032;-79
2024/03/30 01:34:20;;;;;;;5.47;2.08;;;;;;;12.08;73.41;93157.47;5064012;28;20071;-79
2024/03/30 01:36:45;;;;;;;3.40;1.58;;;;;;;12.11;73.61;93159.59;5065549;28;20048;-80
2024/03/30 01:39:11;;;;;;;4.90;1.38;;;;;;;12.02;73.23;93156.53;5065278;28;20068;-80
2024/03/30 01:41:36;;;;;;;5.28;1.60;;;;;;;11.85;73.84;93128.06;5058814;28;20410;-80
2024/03/30 01:44:03;;;;;;;3.55;1.58;;;;;;;12.08;73.41;93165.22;5066037;28;20043;-78
2024/03/30 01:46:30;;;;;;;3.47;1.58;;;;;;;11.95;73.79;93140.41;5064848;28;20043;-79
2024/03/30 01:48:56;;;;;;;4.10;1.40;;;;;;;12.03;73.88;93156.31;5067179;28;20024;-80
2024/03/30 01:51:24;;;;;;;4.65;1.83;;;;;;;11.82;73.62;93118.19;5063117;28;20024;-79
2024/03/30 01:53:50;;;;;;;4.63;1.80;;;;;;;11.89;73.50;93132.53;5062422;28;20041;-79
2024/03/30 01:56:21;;;;;;;5.03;1.40;;;;;;;11.65;73.39;93105.16;5065726;28;20115;-79
2024/03/30 01:58:49;;;;;;;4.47;1.77;;;;;;;11.96;73.49;93160.78;5066454;28;20550;-79
2024/03/30 02:01:18;;;;;;;2.92;1.52;;;;;;;11.98;73.59;93161.34;5064619;28;20063;-79
2024/03/30 02:03:44;;;;;;;4.28;1.45;;;;;;;11.90;74.11;93170.16;5066207;28;20033;-79
2024/03/30 02:06:12;;;;;;;2.83;1.40;;;;;;;11.74;74.20;93155.31;5066737;28;20490;-79
2024/03/30 02:08:40;;;;;;;4.47;1.75;;;;;;;11.78;75.44;93174.47;5066894;28;20032;-80
2024/03/30 02:11:05;;;;;;;4.20;1.77;;;;;;;11.44;75.80;93148.38;5065061;28;20086;-80
2024/03/30 02:13:31;;;;;;;4.93;2.10;;;;;;;11.41;76.23;93169.34;5060863;28;20029;-80
2024/03/30 02:15:57;;;;;;;2.65;1.65;;;;;;;11.25;76.93;93156.06;5066038;28;20035;-79
2024/03/30 02:18:22;;;;;;;7.03;2.03;;;;;;;11.39;76.81;93179.84;5062416;28;20449;-80
2024/03/30 02:20:48;;;;;;;3.50;1.40;;;;;;;11.33;76.93;93181.50;5062535;28;20066;-80
2024/03/30 02:23:16;;;;;;;2.97;1.48;;;;;;;11.35;77.26;93182.06;5066030;28;20044;-80
2024/03/30 02:25:42;;;;;;;3.25;1.75;;;;;;;11.39;76.45;93179.84;5063325;28;20032;-80
2024/03/30 02:28:07;;;;;;;3.75;1.55;;;;;;;11.32;77.55;93182.53;5060821;28;20041;-80
2024/03/30 02:30:33;;;;;;;4.78;1.83;;;;;;;11.40;77.43;93194.31;5060550;28;20028;-80
2024/03/30 02:33:02;;;;;;;2.60;1.65;;;;;;;11.28;76.62;93178.00;5066517;28;20110;-79
2024/03/30 02:35:29;;;;;;;5.75;1.75;;;;;;;11.36;77.33;93204.22;5065885;28;20036;-81
2024/03/30 02:37:55;;;;;;;;;;;;;;;11.39;77.09;93202.22;5064833;28;20042;-81
2024/03/30 02:40:23;;;;;;;7.85;2.92;;;;;;;11.00;77.79;93174.13;5063914;28;19920;-80
2024/03/30 02:42:50;;;;;;;6.72;5.57;;;;;;;11.18;78.73;93196.50;5062142;28;21122;-81
2024/03/30 02:45:16;;;;;;;7.13;3.80;;;;;;;10.92;79.86;93165.72;5066785;28;20040;-80
2024/03/30 02:47:41;;;;;;;13.77;9.85;;;;;;;11.00;80.93;93198.06;5066034;28;20036;-77
2024/03/30 02:50:07;;;;;;;9.65;6.07;;;;;;;10.98;80.94;93199.28;5064403;28;20764;-77
2024/03/30 02:52:33;;;;;;;8.93;4.82;;;;;;;11.01;80.32;93198.84;5065879;28;20033;-77
2024/03/30 02:54:58;;;;;;;8.40;6.20;;;;;;;10.78;81.29;93152.19;5066110;28;20036;-77
2024/03/30 02:57:24;;;;;;;4.60;3.00;;;;;;;10.72;81.65;93141.97;5061469;28;20543;-76
2024/03/30 02:59:49;;;;;;;5.30;2.92;;;;;;;10.93;81.45;93174.22;5065802;28;20040;-77
2024/03/30 03:02:15;;;;;;;4.50;2.38;;;;;;;11.02;80.52;93182.44;5066251;28;20566;-79
2024/03/30 03:04:40;;;;;;;12.52;5.20;;;;;;;10.98;81.29;93176.13;5063581;28;20033;-79
2024/03/30 03:07:07;;;;;;;8.98;4.43;;;;;;;10.63;81.69;93126.84;5063178;28;20123;-79
2024/03/30 03:09:33;;;;;;;11.55;5.03;;;;;;;10.74;81.69;93140.75;5067206;28;20745;-79
2024/03/30 03:11:58;;;;;;;;;;;;;;;11.00;82.09;93172.34;5066505;28;20033;-78
2024/03/30 03:14:24;;;;;;;5.13;2.30;;;;;;;10.53;82.95;93123.97;5067462;28;19935;-78
2024/03/30 03:16:50;;;;;;;3.60;2.17;;;;;;;10.79;83.58;93163.28;5067553;28;20029;-78
2024/03/30 03:19:15;;;;;;;4.10;2.22;;;;;;;10.55;82.63;93127.09;5069671;28;20040;-78
2024/03/30 03:21:41;;;;;;;6.35;2.42;;;;;;;10.44;83.97;93126.03;5068862;28;20028;-78
2024/03/30 03:24:06;;;;;;;6.85;2.75;;;;;;;10.58;85.23;93164.41;5065640;28;20107;-78
2024/03/30 03:26:32;;;;;;;5.90;2.53;;;;;;;10.21;85.88;93134.25;5063799;28;20688;-78
2024/03/30 03:28:57;;;;;;;7.20;3.55;;;;;;;10.10;86.98;93110.84;5067975;28;20118;-78
2024/03/30 03:31:23;;;;;;;4.95;2.80;;;;;;;10.28;86.86;93153.75;5068525;28;20036;-78
2024/03/30 03:33:49;;;;;;;5.32;2.90;;;;;;;10.32;85.72;93155.91;5069941;28;20485;-78
2024/03/30 03:36:15;;;;;;;5.85;2.83;;;;;;;10.25;86.12;93145.69;5065772;28;20037;-78
2024/03/30 03:38:41;;;;;;;6.15;2.53;;;;;;;9.96;86.25;93114.50;5065780;28;20085;-79
2024/03/30 03:41:07;;;;;;;5.60;2.75;;;;;;;10.24;86.82;93155.16;5060968;28;20467;-78
2024/03/30 03:43:33;;;;;;;20.38;11.48;;;;;;;10.05;86.31;93133.78;5063999;28;20067;-78
2024/03/30 03:45:58;;;;;;;11.00;6.35;;;;;;;9.51;86.29;93048.69;5069109;28;20024;-77
2024/03/30 03:48:24;;;;;;;9.25;4.65;;;;;;;10.01;85.94;93118.00;5066878;28;20485;-78
2024/03/30 03:50:50;;;;;;;7.28;2.67;;;;;;;9.98;84.89;93105.59;5069473;28;20052;-78
2024/03/30 03:53:15;;;;;;;7.00;4.78;;;;;;;10.28;85.25;93148.63;5069165;28;20025;-78
2024/03/30 03:55:44;;;;;;;5.95;3.30;;;;;;;10.45;85.15;93162.78;5065928;28;20127;-78
2024/03/30 03:58:10;;;;;;;7.28;2.70;;;;;;;10.33;84.94;93150.59;5068972;28;20094;-78
2024/03/30 04:00:35;;;;;;;4.05;2.35;;;;;;;10.21;85.39;93141.97;5068846;28;20494;-78
2024/03/30 04:03:01;;;;;;;7.40;2.60;;;;;;;10.32;85.34;93173.88;5065417;28;20033;-77
2024/03/30 04:05:27;;;;;;;4.13;1.88;;;;;;;10.16;85.39;93147.72;5068895;28;20108;-77
2024/03/30 04:07:52;;;;;;;3.72;1.60;;;;;;;10.28;85.87;93173.53;5065521;28;20040;-78
2024/03/30 04:10:20;;;;;;;4.22;1.60;;;;;;;10.02;85.36;93137.56;5068417;28;20473;-78
2024/03/30 04:12:47;;;;;;;4.70;1.52;;;;;;;9.97;85.63;93129.69;5061671;28;20711;-79
2024/03/30 04:15:13;;;;;;;8.75;7.85;;;;;;;10.13;86.03;93153.25;5065350;28;20044;-80
2024/03/30 04:17:38;;;;;;;11.77;10.68;;;;;;;10.22;85.64;93152.03;5066320;28;20025;-80
2024/03/30 04:20:05;;;;;;;8.65;5.28;;;;;;;9.97;85.33;93110.94;5068585;28;21108;-79
2024/03/30 04:22:30;;;;;;;;;;;;;;;10.53;84.39;93175.34;5061641;28;20043;-79
2024/03/30 04:24:58;;;;;;;7.53;3.50;;;;;;;10.36;84.03;93142.44;5068225;28;20358;-79
2024/03/30 04:27:24;;;;;;;5.45;3.67;;;;;;;10.36;83.28;93145.00;5057965;28;20024;-80
2024/03/30 04:29:49;;;;;;;5.30;2.40;;;;;;;10.56;83.35;93162.84;5067084;28;20021;-80
2024/03/30 04:32:15;;;;;;;3.75;1.70;;;;;;;10.54;82.80;93162.28;5067986;28;20409;-80
2024/03/30 04:34:40;;;;;;;4.20;1.77;;;;;;;10.74;82.43;93171.59;5067931;28;20036;-80
2024/03/30 04:37:06;;;;;;;8.98;7.88;;;;;;;10.61;82.67;93154.53;5068237;28;20054;-79
2024/03/30 04:39:33;;;;;;;9.23;4.72;;;;;;;10.65;83.46;93155.66;5058702;28;20379;-79
2024/03/30 04:41:59;;;;;;;;;;;;;;;10.91;82.19;93171.06;5065002;28;20453;-79
2024/03/30 04:44:25;;;;;;;24.92;11.18;;;;;;;10.66;82.71;93146.19;5056686;28;20016;-80
2024/03/30 04:46:50;;;;;;;22.10;9.75;;;;;;;10.36;82.43;93103.94;5054185;28;20135;-80
2024/03/30 04:49:16;;;;;;;24.75;11.50;;;;;;;10.85;82.91;93166.75;5061396;28;20842;-80
2024/03/30 04:51:41;;;;;;;14.88;7.35;;;;;;;10.77;82.53;93163.47;5050153;28;20068;-80
2024/03/30 04:54:06;;;;;;;17.92;7.60;;;;;;;10.92;82.23;93177.78;5057954;28;20048;-80
2024/03/30 04:56:32;;;;;;;16.33;6.65;;;;;;;10.81;82.17;93169.78;5050684;28;20025;-79
2024/03/30 04:58:58;;;;;;;9.98;6.07;;;;;;;10.68;83.96;93160.41;5054016;28;20053;-79
2024/03/30 05:01:23;;;;;;;16.17;11.93;;;;;;;9.93;83.49;93069.53;5051627;28;20482;-78
2024/03/30 05:03:49;;;;;;;15.30;4.95;;;;;;;10.00;86.52;93162.63;5053997;28;20029;-77
2024/03/30 05:06:14;;;;;;;9.68;4.88;;;;;;;9.54;91.64;93179.81;5055790;28;20083;-77
2024/03/30 05:08:40;;;;;;;11.27;5.30;;;;;;;9.39;93.07;93153.66;5052697;28;20044;-77
2024/03/30 05:11:05;;;;;;;10.93;5.22;;;;;;;9.61;93.45;93184.94;5053260;28;20041;-77
2024/03/30 05:13:31;;;;;;;13.50;7.03;;;;;;;9.74;94.22;93205.41;5057930;28;20037;-77
2024/03/30 05:15:56;;;;;;;13.82;8.80;;;;;;;9.92;94.31;93205.72;5049294;28;20135;-77
2024/03/30 05:18:22;;;;;;;17.58;9.05;;;;;;;9.89;93.15;93171.78;5053577;28;20078;-78
2024/03/30 05:20:58;;;;;;;;;;;;;;;10.36;91.32;93195.56;5051021;28;20855;-79
2024/03/30 05:23:28;;;;;;;;;;;;;;;10.59;89.97;93200.19;5051381;28;19921;-79
2024/03/30 05:25:55;;;;;;;12.55;7.60;;;;;;;10.26;92.03;93158.31;5062340;28;19912;-79
2024/03/30 05:28:22;;;;;;;11.20;7.85;;;;;;;10.72;90.77;93194.16;5056154;28;20104;-79
2024/03/30 05:30:50;;;;;;;9.63;4.78;;;;;;;10.65;89.37;93170.31;5049184;28;20036;-79
2024/03/30 05:33:15;;;;;;;10.60;5.75;;;;;;;11.07;85.97;93203.16;5053654;28;20505;-78
2024/03/30 05:35:41;;;;;;;9.05;4.28;;;;;;;11.05;85.59;93172.50;5058491;28;20486;-79
2024/03/30 05:38:07;;;;;;;9.82;5.95;;;;;;;11.33;85.07;93181.50;5068345;28;20486;-79
2024/03/30 05:40:34;;;;;;;10.63;5.72;;;;;;;11.42;85.93;93158.06;5049558;28;20086;-79
2024/03/30 05:43:03;;;;;;;13.02;5.80;;;;;;;11.57;84.99;93147.44;5055123;28;20547;-79
2024/03/30 05:45:29;;;;;;;12.15;5.40;;;;;;;11.79;86.24;93157.25;5054160;28;20060;-80
2024/03/30 05:47:55;;;;;;;;;;;;;;;12.24;85.03;93186.97;5054278;28;20033;-79
2024/03/30 05:50:22;;;;;;;12.25;6.32;;;;;;;12.29;83.29;93171.63;5053384;28;19935;-80
2024/03/30 05:52:47;;;;;;;16.35;7.45;;;;;;;12.58;83.30;93174.34;5058543;28;20064;-80
2024/03/30 05:55:13;;;;;;;16.73;8.00;;;;;;;12.85;83.42;93178.28;5049688;28;20413;-79
2024/03/30 05:57:40;;;;;;;15.35;8.25;;;;;;;13.09;80.66;93177.28;5062909;28;20037;-78
2024/03/30 06:00:06;;;;;;;;;;;;;;;13.33;80.92;93179.06;5048559;28;20044;-79
2024/03/30 06:02:32;;;;;;;10.07;4.60;;;;;;;13.23;76.73;93146.09;5053805;28;19917;-80
2024/03/30 06:04:58;;;;;;;10.95;4.65;;;;;;;13.50;75.47;93145.59;5058760;28;20041;-77
2024/03/30 06:07:23;;;;;;;8.57;4.10;;;;;;;13.95;75.31;93180.25;5051463;28;20044;-79
2024/03/30 06:09:49;;;;;;;11.65;3.85;;;;;;;14.10;73.44;93161.66;5057383;28;20112;-79
2024/03/30 06:12:14;;;;;;;18.20;4.00;;;;;;;14.42;73.17;93178.44;5056367;28;20750;-78
2024/03/30 06:14:40;;;;;;;6.78;2.05;;;;;;;14.62;69.26;93170.22;5058177;28;20113;-79
2024/03/30 06:17:06;;;;;;;7.00;1.83;;;;;;;14.93;68.94;93178.47;5052843;28;20037;-78
2024/03/30 06:19:31;;;;;;;6.28;2.30;;;;;;;15.12;67.83;93175.63;5056429;28;20033;-79
2024/03/30 06:21:57;;;;;;;6.47;1.67;;;;;;;15.17;66.24;93144.63;5058963;28;20082;-78
2024/03/30 06:24:22;;;;;;;4.88;1.73;;;;;;;15.48;65.01;93152.78;5058292;28;20040;-79
2024/03/30 06:26:48;;;;;;;4.88;1.30;;;;;;;15.73;62.26;93161.84;5051133;28;20473;-79
2024/03/30 06:29:13;;;;;;;3.17;1.67;;;;;;;15.97;61.48;93151.22;5048764;28;20033;-79
2024/03/30 06:31:39;;;;;;;3.70;1.25;;;;;;;16.15;60.48;93149.31;5050061;28;20035;-79
2024/03/30 06:34:05;;;;;;;6.55;2.10;;;;;;;16.59;59.21;93184.69;5048984;28;20578;-78
2024/03/30 06:36:33;;;;;;;;;;;;;;;17.03;58.67;93180.38;5053285;28;20036;-78
2024/03/30 06:38:59;;;;;;;7.35;2.50;;;;;;;16.91;58.76;93189.09;5050664;28;20425;-78
2024/03/30 06:44:10;;;;;;;6.93;2.40;;;;;;;17.33;57.06;93164.19;5055539;28;20516;-78
2024/03/30 06:46:35;;;;;;;;;;;;;;;17.84;58.38;93193.19;5057935;28;20028;-78
2024/03/30 06:49:01;;;;;;;6.38;2.92;;;;;;;18.05;56.71;93193.25;5052556;28;19913;-78
2024/03/30 06:51:26;;;;;;;6.57;2.00;;;;;;;18.04;54.48;93189.88;5052855;28;20029;-78
2024/03/30 06:53:52;;;;;;;6.68;3.05;;;;;;;18.13;55.88;93161.56;5054961;28;20028;-78
2024/03/30 06:56:17;;;;;;;7.00;2.90;;;;;;;18.65;54.92;93187.63;5058516;28;20056;-79
2024/03/30 06:58:42;;;;;;;4.90;1.45;;;;;;;18.74;53.73;93157.44;5052421;28;20473;-78
2024/03/30 07:01:09;;;;;;;6.75;1.55;;;;;;;19.22;52.65;93185.75;5053452;28;20086;-78
2024/03/30 07:03:35;;;;;;;6.20;1.20;;;;;;;19.58;50.61;93197.91;5056501;28;20589;-79
2024/03/30 07:06:00;;;;;;;6.10;1.77;;;;;;;19.56;50.07;93150.50;5054017;28;20033;-79
2024/03/30 07:08:26;;;;;;;4.72;1.35;;;;;;;19.98;50.21;93181.59;5051036;28;20044;-79
2024/03/30 07:10:51;;;;;;;10.63;1.38;;;;;;;20.02;49.70;93169.59;5067000;28;20490;-79
2024/03/30 07:13:17;;;;;;;;;;;;;;;20.49;49.15;93198.78;5060625;28;20457;-79
2024/03/30 07:15:42;;;;;;;7.20;1.65;;;;;;;20.45;49.37;93171.66;5056403;28;19921;-79
2024/03/30 07:18:07;;;;;;;;;;;;;;;20.83;48.60;93199.84;5061317;28;20031;-78
2024/03/30 07:20:33;;;;;;;5.00;1.00;;;;;;;20.83;47.95;93211.03;5053549;28;19978;-79
2024/03/30 07:22:58;;;;;;;6.55;1.58;;;;;;;20.98;47.96;93217.25;5053964;28;20254;-79
2024/03/30 07:25:24;;;;;;;;;;;;;;;21.15;47.67;93216.81;5058006;28;20717;-79
2024/03/30 07:27:49;;;;;;;5.43;1.30;;;;;;;21.03;47.60;93192.91;5054927;28;20352;-79
2024/03/30 07:30:15;;;;;;;3.95;1.33;;;;;;;21.29;47.56;93224.78;5060347;28;20319;-79
2024/03/30 07:32:40;;;;;;;6.45;1.60;;;;;;;21.52;47.52;93209.38;5055275;28;20529;-79
2024/03/30 07:35:06;;;;;;;4.40;1.65;;;;;;;21.70;46.58;93212.34;5053963;28;20037;-79
2024/03/30 07:37:32;;;;;;;6.53;1.83;;;;;;;21.89;47.04;93218.41;5060203;28;20116;-79
2024/03/30 07:39:58;;;;;;;7.07;1.20;;;;;;;21.57;45.45;93185.81;5053232;28;20029;-79
2024/03/30 07:42:23;;;;;;;5.93;1.30;;;;;;;21.75;45.32;93207.84;5059229;28;20505;-80
2024/03/30 07:44:49;;;;;;;;;;;;;;;21.92;45.33;93216.28;5058117;28;20048;-79
2024/03/30 07:47:14;;;;;;;;;;;;;;;21.96;45.00;93219.91;5053483;28;19945;-80
2024/03/30 07:49:40;;;;;;;3.77;1.20;;;;;;;21.79;44.13;93186.41;5069412;28;19924;-80
2024/03/30 07:52:05;;;;;;;;;;;;;;;21.96;43.70;93217.28;5053125;28;20032;-80
2024/03/30 07:54:30;;;;;;;;;;;;;;;22.03;44.30;93215.09;5054287;28;19920;-85
2024/03/30 07:56:57;;;;;;;8.27;1.53;;;;;;;22.07;44.91;93220.56;5053107;28;19920;-77
2024/03/30 07:59:23;;;;;;;5.18;1.17;;;;;;;21.87;43.42;93188.38;5054603;28;20079;-78
2024/03/30 08:01:50;;;;;;;5.47;1.30;;;;;;;22.05;43.26;93212.22;5050700;28;20417;-77
2024/03/30 08:04:16;;;;;;;3.28;1.05;;;;;;;22.02;43.40;93209.09;5051837;28;20893;-77
2024/03/30 08:06:48;;;;;;;3.80;1.05;;;;;;;;;;5058558;28;20091;-77
2024/03/30 08:09:15;;;;;;;5.03;1.15;;;;;;;22.13;43.54;93211.59;5053900;28;20036;-76
2024/03/30 08:11:42;;;;;;;3.17;0.95;;;;;;;22.01;43.61;93170.94;5059971;28;21140;-77
2024/03/30 08:14:08;;;;;;;5.68;0.98;;;;;;;22.24;44.04;93197.31;5057480;28;20051;-77
2024/03/30 08:16:34;;;;;;;6.97;1.55;;;;;;;22.50;43.52;93204.03;5049782;28;20036;-77
2024/03/30 08:19:02;;;;;;;;;;;;;;;22.54;42.78;93211.03;5059000;28;20041;-77
2024/03/30 08:21:28;;;;;;;4.53;1.05;;;;;;;22.49;42.52;93208.47;5052064;28;20356;-78
2024/03/30 08:23:53;;;;;;;;;;;;;;;22.65;43.13;93213.50;5070936;28;20044;-77
2024/03/30 08:26:19;;;;;;;4.05;1.20;;;;;;;22.65;42.13;93224.78;5052644;28;19961;-78
2024/03/30 08:28:47;;;;;;;;;;;;;;;22.92;42.60;93210.19;5056180;28;20480;-78
2024/03/30 08:31:14;;;;;;;4.07;1.15;;;;;;;22.76;42.21;93188.72;5059717;28;19917;-77
2024/03/30 08:33:39;;;;;;;3.30;1.08;;;;;;;23.06;41.08;93215.47;5062380;28;20043;-77
2024/03/30 08:36:05;;;;;;;;;;;;;;;23.21;40.70;93205.81;5056758;28;20465;-77
2024/03/30 08:38:30;;;;;;;7.35;1.20;;;;;;;22.88;41.73;93177.81;5055691;28;20282;-77
2024/03/30 08:40:55;;;;;;;;;;;;;;;23.08;41.51;93202.88;5050482;28;20064;-77
2024/03/30 08:43:25;;;;;;;;;;;;;;;23.12;41.20;93197.84;5062514;28;20015;-77
2024/03/30 08:45:50;;;;;;;3.33;0.93;;;;;;;23.16;40.93;93184.94;5054097;28;19948;-77
2024/03/30 08:48:17;;;;;;;;;;;;;;;23.42;40.94;93190.50;5053448;28;20048;-77
2024/03/30 08:50:42;;;;;;;3.03;1.00;;;;;;;22.92;40.42;93089.72;5059729;28;20279;-78
2024/03/30 08:53:08;;;;;;;;;;;;;;;23.83;40.81;93188.19;5056614;28;20047;-77
2024/03/30 08:55:35;;;;;;;;;;;;;;;23.85;40.27;93183.41;5057081;28;19922;-77
2024/03/30 08:58:00;;;;;;;7.38;1.20;;;;;;;23.71;39.52;93165.06;5061090;28;19936;-78
2024/03/30 09:00:25;;;;;;;;;;;;;;;23.87;40.22;93178.63;5055968;28;20041;-78
2024/03/30 09:02:52;;;;;;;;;;;;;;;24.00;39.39;93172.59;5052967;28;19922;-78
2024/03/30 09:05:18;;;;;;;4.25;1.20;;;;;;;24.05;40.53;93147.31;5061347;28;19927;-78
2024/03/30 09:07:43;;;;;;;;;;;;;;;24.48;39.13;93167.91;5052754;28;20032;-78
2024/03/30 09:10:09;;;;;;;;;;;;;;;24.58;38.71;93171.38;5051666;28;19917;-76
2024/03/30 09:12:34;;;;;;;8.30;1.55;;;;;;;24.54;39.00;93150.19;5055167;28;19942;-77
2024/03/30 09:14:59;;;;;;;;;;;;;;;24.54;38.36;93165.94;5050245;28;20036;-78
2024/03/30 09:17:25;;;;;;;;;;;;;;;24.49;38.23;93163.44;5053462;28;19916;-76
2024/03/30 09:19:50;;;;;;;6.88;1.50;;;;;;;24.60;39.08;93149.00;5050808;28;20313;-78
2024/03/30 09:22:15;;;;;;;;;;;;;;;24.88;38.97;93148.88;5057348;28;20040;-78
2024/03/30 09:24:43;;;;;;;;;;;;;;;24.84;38.88;93155.03;5057330;28;19920;-77
2024/03/30 09:27:08;;;;;;;2.53;1.00;;;;;;;24.91;39.00;93143.00;5054029;28;19924;-78
2024/03/30 09:29:34;;;;;;;;;;;;;;;25.21;37.19;93148.56;5056893;28;20028;-78
2024/03/30 09:31:59;;;;;;;4.88;1.27;;;;;;;25.07;37.49;93109.25;5061667;28;20342;-78
2024/03/30 09:34:25;;;;;;;;;;;;;;;25.51;36.80;93140.16;5054179;28;20465;-78
2024/03/30 09:36:50;;;;;;;6.93;1.13;;;;;;;25.40;37.39;93109.97;5051877;28;19975;-77
2024/03/30 09:39:16;;;;;;;4.97;1.15;;;;;;;25.62;35.72;93135.41;5048790;28;20060;-78
2024/03/30 09:41:54;;;;;;;2.80;0.77;;;;;;;25.45;36.02;93109.81;5053320;28;20031;-78
2024/03/30 09:44:20;;;;;;;6.43;1.35;;;;;;;25.61;36.05;93105.69;5058103;28;20347;-78
2024/03/30 09:46:46;;;;;;;;;;;;;;;25.98;36.12;93130.97;5055745;28;20470;-79
2024/03/30 09:49:14;;;;;;;4.95;0.80;;;;;;;25.71;36.32;93115.16;5051812;28;19963;-76
2024/03/30 09:51:46;;;;;;;1.77;0.60;;;;;;;25.96;34.62;93122.63;5056233;28;20170;-76
2024/03/30 09:54:23;;;;;;;2.92;0.65;;;;;;;25.43;34.54;93073.31;5052538;28;20048;-77
2024/03/30 09:56:50;;;;;;;2.08;0.70;;;;;;;25.87;34.29;93130.53;5058869;28;20025;-77
2024/03/30 09:59:17;;;;;;;2.47;0.80;;;;;;;25.19;33.34;93047.44;5052289;28;20041;-76
2024/03/30 10:01:45;;;;;;;3.03;0.93;;;;;;;25.72;33.82;93115.94;5058051;28;20399;-76
2024/03/30 10:04:10;;;;;;;1.23;0.50;;;;;;;25.35;33.72;93097.72;5054991;28;20055;-76
2024/03/30 10:06:51;;;;;;;4.25;0.77;;;;;;;25.78;34.75;93104.19;5049223;28;20053;-76
2024/03/30 10:09:19;;;;;;;5.18;0.65;;;;;;;25.91;35.62;93113.00;5052515;28;20417;-77
2024/03/30 10:11:46;;;;;;;2.63;1.02;;;;;;;25.84;34.51;93113.50;5055412;28;20020;-76
2024/03/30 10:14:14;;;;;;;4.13;0.80;;;;;;;25.89;33.00;93113.31;5051983;28;20096;-76
2024/03/30 10:16:39;;;;;;;8.02;1.73;;;;;;;25.96;34.95;93102.34;5049526;28;20017;-77
2024/03/30 10:19:06;;;;;;;6.03;0.80;;;;;;;26.04;34.11;93097.38;5049224;28;20519;-77
2024/03/30 10:21:31;;;;;;;3.03;0.60;;;;;;;25.93;33.44;93089.81;5053688;28;20123;-76
2024/03/30 10:23:59;;;;;;;4.30;1.00;;;;;;;25.84;33.35;93075.88;5052968;28;20031;-76
2024/03/30 10:26:24;;;;;;;3.20;0.90;;;;;;;26.13;33.01;93104.22;5055905;28;20036;-76
2024/03/30 10:28:50;;;;;;;1.85;0.77;;;;;;;25.98;33.63;93071.25;5049108;28;20060;-76
2024/03/30 10:31:16;;;;;;;2.78;0.80;;;;;;;25.94;32.77;93107.16;5051818;28;20028;-76
2024/03/30 10:33:42;;;;;;;1.65;0.45;;;;;;;25.81;32.97;93064.09;5059317;28;20518;-77
2024/03/30 10:36:11;;;;;;;2.00;0.75;;;;;;;25.91;32.33;93067.53;5051686;28;20029;-77
2024/03/30 10:38:39;;;;;;;1.83;0.60;;;;;;;25.97;32.56;93092.59;5052437;28;20038;-76
2024/03/30 10:41:06;;;;;;;5.03;0.57;;;;;;;26.00;32.61;93092.75;5054996;28;20379;-76
2024/03/30 10:43:34;;;;;;;3.70;0.60;;;;;;;25.90;33.39;93066.75;5054033;28;20144;-76
2024/03/30 10:46:00;;;;;;;3.25;0.68;;;;;;;26.10;32.81;93083.00;5056229;28;20036;-76
2024/03/30 10:48:25;;;;;;;2.97;0.60;;;;;;;25.86;32.19;93084.22;5051881;28;20436;-76
2024/03/30 10:50:51;;;;;;;2.35;0.30;;;;;;;25.81;32.74;93087.00;5049761;28;20109;-76
2024/03/30 10:53:17;;;;;;;1.73;0.50;;;;;;;25.57;31.84;93062.69;5058888;28;20478;-76
2024/03/30 10:55:43;;;;;;;3.22;0.57;;;;;;;25.63;32.45;93076.47;5056279;28;20033;-76
2024/03/30 10:58:09;;;;;;;4.82;1.08;;;;;;;25.65;31.75;93065.63;5053168;28;20047;-76
2024/03/30 11:00:36;;;;;;;6.53;0.95;;;;;;;25.76;31.51;93066.88;5060251;28;20037;-76
2024/03/30 11:03:04;;;;;;;2.55;0.32;;;;;;;25.94;31.19;93059.78;5056639;28;20033;-76
2024/03/30 11:05:31;;;;;;;2.83;0.70;;;;;;;26.10;30.90;93070.59;5057279;28;20056;-77
2024/03/30 11:07:56;;;;;;;5.45;0.55;;;;;;;26.09;29.07;93063.78;5051185;28;20029;-76
2024/03/30 11:10:22;;;;;;;1.63;0.30;;;;;;;25.94;30.28;93016.88;5064969;28;20039;-76
2024/03/30 11:12:47;;;;;;;;;;;;;;;26.32;29.49;93053.09;5062233;28;20082;-76
2024/03/30 11:15:13;;;;;;;1.60;0.43;;;;;;;26.45;28.96;93066.38;5054660;28;20313;-76
2024/03/30 11:17:54;;;;;;;1.25;0.30;;;;;;;26.35;29.00;93030.63;5049537;28;20021;-76
2024/03/30 11:20:37;;;;;;;2.80;0.88;;;;;;;26.49;30.10;93025.97;5055413;28;20032;-76
2024/03/30 11:23:15;;;;;;;5.57;1.13;;;;;;;26.68;29.96;93037.97;5049862;28;20029;-75
2024/03/30 11:25:47;;;;;;;4.63;0.77;;;;;;;26.71;30.92;93020.78;5049156;28;20482;-76
2024/03/30 11:28:30;;;;;;;3.55;0.50;;;;;;;26.51;29.64;93020.38;5052784;28;20067;-76
2024/03/30 11:31:04;;;;;;;3.10;0.52;;;;;;;26.68;29.33;93049.31;5052572;28;20025;-76
2024/03/30 11:33:43;;;;;;;0.93;0.47;;;;;;;26.44;29.47;93038.50;5056738;28;20428;-76
2024/03/30 11:36:31;;;;;;;2.75;0.50;;;;;;;26.27;29.07;93037.47;5053010;28;20059;-77
2024/03/30 11:39:10;;;;;;;1.60;0.30;;;;;;;26.59;30.23;93032.75;5064073;28;20075;-76
2024/03/30 11:41:39;;;;;;;1.50;0.50;;;;;;;26.55;28.80;93013.38;5060567;28;20032;-76
2024/03/30 11:44:13;;;;;;;3.65;0.50;;;;;;;26.54;29.62;92994.19;5066323;28;20040;-76